Time;durP1;ratioP1;P1;durP2;ratioP2;P2;SDS_P1;SDS_P2;PMS_P1;PMS_P2;Temp;Humidity;BMP_temperature;BMP_pressure;BME280_temperature;BME280_humidity;BME280_pressure;Samples;Min_cycle;Max_cycle;Signal;HPM_P1;HPM_P2
2023/09/18 00:00:21;;;;;;;7.17;4.60;;;;;;;19.59;100.00;99843.47;697979;28;1459;-67
2023/09/18 00:00:44;;;;;;;7.95;4.70;;;;;;;19.55;100.00;99848.09;699817;28;915;-67
2023/09/18 00:01:05;;;;;;;8.43;4.65;;;;;;;19.55;100.00;99839.31;699122;28;4333;-67
2023/09/18 00:01:26;;;;;;;9.35;4.65;;;;;;;19.52;100.00;99834.16;697578;28;1759;-66
2023/09/18 00:01:46;;;;;;;7.10;4.53;;;;;;;19.52;100.00;99835.03;699363;28;3906;-67
2023/09/18 00:02:07;;;;;;;7.30;4.70;;;;;;;19.51;100.00;99846.56;701968;28;923;-67
2023/09/18 00:02:29;;;;;;;9.03;4.90;;;;;;;19.49;100.00;99840.47;697986;28;1790;-67
2023/09/18 00:02:49;;;;;;;8.63;4.57;;;;;;;19.48;100.00;99843.22;699642;28;756;-67
2023/09/18 00:03:10;;;;;;;9.40;4.75;;;;;;;19.48;100.00;99845.84;699031;28;1745;-67
2023/09/18 00:03:30;;;;;;;7.83;4.83;;;;;;;19.46;100.00;99845.09;697425;28;978;-67
2023/09/18 00:03:51;;;;;;;8.00;4.80;;;;;;;19.47;100.00;99844.16;697234;28;5245;-66
2023/09/18 00:04:11;;;;;;;8.13;4.80;;;;;;;19.44;100.00;99842.53;698173;28;1860;-67
2023/09/18 00:04:31;;;;;;;7.03;4.53;;;;;;;19.45;100.00;99848.69;701314;28;896;-67
2023/09/18 00:04:52;;;;;;;7.93;4.60;;;;;;;19.44;100.00;99845.19;701032;28;887;-66
2023/09/18 00:05:15;;;;;;;7.65;4.70;;;;;;;19.44;100.00;99846.97;699953;28;1759;-67
2023/09/18 00:05:36;;;;;;;7.32;4.55;;;;;;;19.44;100.00;99839.00;699744;28;947;-67
2023/09/18 00:05:56;;;;;;;8.20;4.73;;;;;;;19.43;100.00;99839.97;701816;28;986;-67
2023/09/18 00:06:16;;;;;;;8.88;4.80;;;;;;;19.41;100.00;99837.38;699604;28;1007;-67
2023/09/18 00:06:37;;;;;;;9.57;5.27;;;;;;;19.39;100.00;99840.13;701735;28;1579;-67
2023/09/18 00:06:57;;;;;;;8.63;4.83;;;;;;;19.38;100.00;99838.44;699949;28;4704;-67
2023/09/18 00:07:17;;;;;;;8.80;4.45;;;;;;;19.38;100.00;99841.09;700413;28;1598;-67
2023/09/18 00:07:38;;;;;;;9.97;4.83;;;;;;;19.38;100.00;99838.44;698793;28;1151;-67
2023/09/18 00:07:58;;;;;;;10.32;4.78;;;;;;;19.37;100.00;99836.72;697566;28;827;-67
2023/09/18 00:08:19;;;;;;;7.67;4.57;;;;;;;19.36;100.00;99835.00;696390;28;1592;-67
2023/09/18 00:08:40;;;;;;;8.27;4.88;;;;;;;19.36;100.00;99836.81;697821;28;848;-67
2023/09/18 00:09:00;;;;;;;8.95;4.85;;;;;;;19.34;100.00;99834.25;698334;28;1047;-67
2023/09/18 00:09:21;;;;;;;7.93;4.80;;;;;;;19.33;100.00;99837.81;696370;28;1794;-67
2023/09/18 00:09:41;;;;;;;7.53;4.70;;;;;;;19.31;100.00;99833.53;700011;28;927;-67
2023/09/18 00:10:02;;;;;;;8.57;5.00;;;;;;;19.31;100.00;99836.19;701423;28;4344;-67
2023/09/18 00:10:22;;;;;;;8.77;5.07;;;;;;;19.31;100.00;99826.44;700280;28;1807;-66
2023/09/18 00:10:49;;;;;;;7.72;5.00;;;;;;;19.32;100.00;99837.91;701224;28;800;-67
2023/09/18 00:11:09;;;;;;;8.02;5.25;;;;;;;19.31;100.00;99831.72;700429;28;1208;-67
2023/09/18 00:11:30;;;;;;;8.37;4.97;;;;;;;19.31;100.00;99825.59;697385;28;1795;-66
2023/09/18 00:11:51;;;;;;;7.20;4.57;;;;;;;19.30;100.00;99832.69;698791;28;769;-67
2023/09/18 00:12:11;;;;;;;7.20;4.68;;;;;;;19.30;100.00;99823.88;697597;28;1716;-66
2023/09/18 00:12:31;;;;;;;6.83;4.60;;;;;;;19.30;100.00;99826.53;699835;28;835;-67
2023/09/18 00:12:52;;;;;;;6.70;4.57;;;;;;;19.28;100.00;99826.59;698493;28;4543;-67
2023/09/18 00:13:12;;;;;;;9.27;4.63;;;;;;;19.27;100.00;99824.88;694382;28;1482;-67
2023/09/18 00:13:32;;;;;;;8.93;4.63;;;;;;;19.27;100.00;99821.41;697872;28;860;-67
2023/09/18 00:13:53;;;;;;;8.18;4.72;;;;;;;19.26;100.00;99820.56;698721;28;775;-67
2023/09/18 00:14:13;;;;;;;6.90;4.70;;;;;;;19.26;100.00;99820.56;697502;28;1745;-67
2023/09/18 00:14:33;;;;;;;7.37;4.73;;;;;;;19.25;100.00;99816.19;698750;28;1279;-67
2023/09/18 00:14:54;;;;;;;8.05;4.85;;;;;;;19.23;100.00;99821.56;700002;28;789;-67
2023/09/18 00:15:14;;;;;;;8.23;4.73;;;;;;;19.25;100.00;99810.03;698116;28;1897;-66
2023/09/18 00:15:36;;;;;;;6.53;4.60;;;;;;;19.25;100.00;99813.53;699951;28;915;-67
2023/09/18 00:15:59;;;;;;;8.57;4.63;;;;;;;19.23;100.00;99810.97;698648;28;4519;-67
2023/09/18 00:16:19;;;;;;;9.35;4.65;;;;;;;19.22;100.00;99816.34;698056;28;1792;-66
2023/09/18 00:16:41;;;;;;;8.57;4.70;;;;;;;19.22;100.00;99813.72;696472;28;1170;-66
2023/09/18 00:17:02;;;;;;;9.10;4.80;;;;;;;19.21;100.00;99814.63;696828;28;1026;-67
2023/09/18 00:17:23;;;;;;;8.52;5.03;;;;;;;19.18;100.00;99810.34;697601;28;1841;-67
2023/09/18 00:17:44;;;;;;;8.77;4.80;;;;;;;19.17;100.00;99818.38;700303;28;916;-66
2023/09/18 00:18:05;;;;;;;9.40;5.20;;;;;;;19.16;100.00;99814.91;695645;28;1386;-67
2023/09/18 00:18:25;;;;;;;6.93;4.90;;;;;;;19.15;100.00;99809.66;694541;28;1505;-67
2023/09/18 00:18:45;;;;;;;8.80;5.03;;;;;;;19.16;100.00;99816.66;693603;28;917;-67
2023/09/18 00:19:07;;;;;;;9.80;5.05;;;;;;;19.15;100.00;99810.53;693555;28;4804;-67
2023/09/18 00:19:28;;;;;;;8.38;5.05;;;;;;;19.14;100.00;99816.75;693225;28;1727;-67
2023/09/18 00:19:48;;;;;;;7.40;5.00;;;;;;;19.13;100.00;99816.84;693418;28;972;-66
2023/09/18 00:20:09;;;;;;;8.60;4.85;;;;;;;19.13;100.00;99815.03;698096;28;931;-67
2023/09/18 00:20:29;;;;;;;6.90;4.90;;;;;;;19.13;100.00;99817.69;697361;28;2167;-66
2023/09/18 00:20:51;;;;;;;7.63;4.70;;;;;;;19.12;100.00;99816.00;701191;28;963;-67
2023/09/18 00:21:12;;;;;;;8.05;4.75;;;;;;;19.13;100.00;99808.91;700154;28;1580;-67
2023/09/18 00:21:33;;;;;;;7.90;4.80;;;;;;;19.11;100.00;99818.72;699617;28;1157;-66
2023/09/18 00:21:54;;;;;;;6.82;4.60;;;;;;;19.12;100.00;99808.06;698492;28;4388;-69
2023/09/18 00:22:14;;;;;;;6.53;4.57;;;;;;;19.13;100.00;99811.53;698913;28;2326;-67
2023/09/18 00:22:35;;;;;;;7.67;5.10;;;;;;;19.12;100.00;99805.41;701817;28;827;-67
2023/09/18 00:22:56;;;;;;;7.57;4.75;;;;;;;19.12;100.00;99809.81;700188;28;1282;-66
2023/09/18 00:23:16;;;;;;;9.30;4.97;;;;;;;19.12;100.00;99813.34;701557;28;1879;-66
2023/09/18 00:23:37;;;;;;;9.77;5.05;;;;;;;19.13;100.00;99814.19;701074;28;1427;-67
2023/09/18 00:23:58;;;;;;;7.40;4.60;;;;;;;19.10;100.00;99811.72;701192;28;824;-66
2023/09/18 00:24:18;;;;;;;7.57;4.77;;;;;;;19.11;100.00;99816.09;697190;28;2374;-67
2023/09/18 00:24:38;;;;;;;8.40;4.72;;;;;;;19.10;100.00;99809.91;695823;28;1322;-67
2023/09/18 00:24:59;;;;;;;6.73;4.67;;;;;;;19.09;100.00;99810.00;695976;28;4271;-67
2023/09/18 00:25:19;;;;;;;8.20;4.78;;;;;;;19.09;100.00;99815.28;694688;28;1703;-66
2023/09/18 00:25:43;;;;;;;8.20;4.50;;;;;;;19.09;100.00;99810.00;695288;28;892;-67
2023/09/18 00:26:03;;;;;;;8.77;4.72;;;;;;;19.08;100.00;99801.22;696851;28;872;-67
2023/09/18 00:26:25;;;;;;;8.87;5.20;;;;;;;19.08;100.00;99808.28;696255;28;2444;-67
2023/09/18 00:26:47;;;;;;;9.80;5.05;;;;;;;19.07;100.00;99807.44;698827;28;832;-67
2023/09/18 00:27:08;;;;;;;10.07;5.25;;;;;;;19.02;100.00;99799.75;699188;28;892;-67
2023/09/18 00:27:29;;;;;;;8.57;5.00;;;;;;;19.01;100.00;99807.75;695263;28;2607;-67
2023/09/18 00:27:51;;;;;;;8.38;4.93;;;;;;;19.02;100.00;99802.41;697563;28;1211;-67
2023/09/18 00:28:12;;;;;;;7.70;4.88;;;;;;;19.02;100.00;99793.56;695145;28;6502;-67
2023/09/18 00:28:34;;;;;;;7.55;4.65;;;;;;;19.02;100.00;99790.94;697875;28;868;-67
2023/09/18 00:28:55;;;;;;;7.47;5.10;;;;;;;19.02;100.00;99797.09;698424;28;1039;-67
2023/09/18 00:29:15;;;;;;;9.03;5.30;;;;;;;19.02;100.00;99801.53;698386;28;1593;-66
2023/09/18 00:29:36;;;;;;;8.23;5.17;;;;;;;19.01;100.00;99798.03;697692;28;1191;-66
2023/09/18 00:29:56;;;;;;;7.87;5.10;;;;;;;19.00;100.00;99796.31;699093;28;1225;-67
2023/09/18 00:30:16;;;;;;;8.37;4.90;;;;;;;19.00;100.00;99793.66;698739;28;920;-66
2023/09/18 00:30:42;;;;;;;6.90;4.63;;;;;;;18.99;100.00;99791.09;699914;28;907;-67
2023/09/18 00:31:02;;;;;;;7.32;4.40;;;;;;;18.99;100.00;99799.03;697996;28;4434;-66
2023/09/18 00:31:23;;;;;;;7.35;4.78;;;;;;;18.99;100.00;99799.03;697973;28;2259;-67
2023/09/18 00:31:43;;;;;;;9.70;4.93;;;;;;;18.98;100.00;99792.91;697503;28;800;-67
2023/09/18 00:32:05;;;;;;;9.43;5.68;;;;;;;18.96;100.00;99789.47;697582;28;817;-67
2023/09/18 00:32:25;;;;;;;8.07;5.28;;;;;;;18.96;100.00;99792.13;695652;28;1431;-67
2023/09/18 00:32:46;;;;;;;7.30;4.70;;;;;;;18.96;100.00;99791.28;696896;28;2469;-67
2023/09/18 00:33:07;;;;;;;8.65;5.00;;;;;;;18.94;100.00;99791.34;695463;28;1908;-67
2023/09/18 00:33:27;;;;;;;7.27;4.80;;;;;;;18.95;100.00;99786.91;696305;28;2013;-67
2023/09/18 00:33:48;;;;;;;7.20;4.97;;;;;;;18.95;100.00;99790.41;698939;28;809;-66
2023/09/18 00:34:08;;;;;;;8.33;5.20;;;;;;;18.94;100.00;99791.34;698518;28;4486;-66
2023/09/18 00:34:31;;;;;;;7.05;4.90;;;;;;;18.95;100.00;99787.75;698156;28;1791;-67
2023/09/18 00:34:52;;;;;;;7.63;4.85;;;;;;;18.93;100.00;99784.34;695771;28;1270;-66
2023/09/18 00:35:12;;;;;;;8.47;4.87;;;;;;;18.93;100.00;99784.34;697557;28;1479;-67
2023/09/18 00:35:33;;;;;;;7.47;4.70;;;;;;;18.94;100.00;99788.72;698126;28;927;-67
2023/09/18 00:35:53;;;;;;;7.10;4.90;;;;;;;18.93;100.00;99789.63;698777;28;974;-67
2023/09/18 00:36:14;;;;;;;8.57;5.13;;;;;;;18.93;100.00;99788.75;697490;28;1661;-67
2023/09/18 00:36:34;;;;;;;9.00;5.20;;;;;;;18.93;100.00;99789.63;698668;28;974;-67
2023/09/18 00:36:54;;;;;;;8.93;5.20;;;;;;;18.93;100.00;99788.75;696323;28;4511;-66
2023/09/18 00:37:16;;;;;;;8.47;5.07;;;;;;;18.92;100.00;99793.22;693068;28;1886;-66
2023/09/18 00:37:39;;;;;;;7.40;5.03;;;;;;;18.92;100.00;99789.72;693846;28;868;-66
2023/09/18 00:38:03;;;;;;;8.82;4.88;;;;;;;18.91;100.00;99790.66;697414;28;845;-66
2023/09/18 00:38:24;;;;;;;9.38;5.03;;;;;;;18.92;100.00;99792.38;695855;28;1465;-67
2023/09/18 00:38:44;;;;;;;9.23;4.83;;;;;;;18.92;100.00;99787.91;695345;28;1018;-66
2023/09/18 00:39:04;;;;;;;8.20;4.90;;;;;;;18.89;100.00;99788.94;697524;28;1950;-67
2023/09/18 00:39:28;;;;;;;7.97;5.00;;;;;;;18.91;100.00;99788.00;697476;28;1761;-67
2023/09/18 00:39:52;;;;;;;9.68;5.28;;;;;;;18.90;100.00;99789.81;699537;28;943;-67
2023/09/18 00:40:12;;;;;;;6.95;4.60;;;;;;;18.89;100.00;99788.94;696434;28;4892;-66
2023/09/18 00:40:33;;;;;;;8.00;4.80;;;;;;;18.89;100.00;99794.22;699980;28;735;-66
2023/09/18 00:40:53;;;;;;;7.57;4.50;;;;;;;18.89;100.00;99793.38;701907;28;856;-66
2023/09/18 00:41:13;;;;;;;8.33;4.90;;;;;;;18.88;100.00;99783.72;696536;28;2342;-67
2023/09/18 00:41:34;;;;;;;7.63;5.03;;;;;;;18.89;100.00;99785.44;695155;28;1274;-67
2023/09/18 00:41:54;;;;;;;8.45;4.93;;;;;;;18.89;100.00;99796.88;697534;28;777;-67
2023/09/18 00:42:17;;;;;;;7.63;4.83;;;;;;;18.90;100.00;99792.47;694747;28;1782;-67
2023/09/18 00:42:38;;;;;;;8.73;4.95;;;;;;;18.92;100.00;99789.72;698629;28;912;-67
2023/09/18 00:42:58;;;;;;;8.60;5.00;;;;;;;18.92;100.00;99787.91;695712;28;4368;-67
2023/09/18 00:43:20;;;;;;;8.63;5.00;;;;;;;18.93;100.00;99792.28;693663;28;1716;-66
2023/09/18 00:43:41;;;;;;;7.68;4.80;;;;;;;18.94;100.00;99790.47;692162;28;924;-66
2023/09/18 00:44:02;;;;;;;7.70;4.78;;;;;;;18.95;100.00;99789.56;692845;28;1418;-67
2023/09/18 00:44:26;;;;;;;7.70;4.78;;;;;;;18.96;100.00;99793.91;690269;28;1724;-67
2023/09/18 00:44:46;;;;;;;7.38;4.78;;;;;;;18.96;100.00;99794.75;689735;28;996;-67
2023/09/18 00:45:09;;;;;;;9.30;5.03;;;;;;;18.96;100.00;99794.75;694339;28;927;-67
2023/09/18 00:45:29;;;;;;;9.50;4.80;;;;;;;18.98;100.00;99797.31;693936;28;1446;-66
2023/09/18 00:45:50;;;;;;;9.57;4.85;;;;;;;18.96;100.00;99784.16;695130;28;4454;-66
2023/09/18 00:46:13;;;;;;;8.37;4.90;;;;;;;18.97;100.00;99791.19;693687;28;1364;-66
2023/09/18 00:46:35;;;;;;;6.50;4.60;;;;;;;18.98;100.00;99784.97;694315;28;805;-66
2023/09/18 00:46:56;;;;;;;7.05;4.55;;;;;;;18.98;100.00;99779.66;694250;28;821;-67
2023/09/18 00:47:17;;;;;;;8.32;4.70;;;;;;;18.99;100.00;99783.16;691568;28;1847;-67
2023/09/18 00:47:37;;;;;;;7.97;4.57;;;;;;;18.98;100.00;99794.69;692964;28;876;-67
2023/09/18 00:47:58;;;;;;;7.13;4.30;;;;;;;18.96;100.00;99773.56;696022;28;1236;-67
2023/09/18 00:48:19;;;;;;;7.00;4.30;;;;;;;18.96;100.00;99778.88;699004;28;1767;-67
2023/09/18 00:48:40;;;;;;;7.78;4.80;;;;;;;18.97;100.00;99780.59;699541;28;882;-67
2023/09/18 00:49:00;;;;;;;8.75;4.65;;;;;;;18.98;100.00;99778.78;697786;28;4355;-67
2023/09/18 00:49:22;;;;;;;7.83;4.63;;;;;;;18.96;100.00;99778.03;699028;28;1745;-67
2023/09/18 00:49:47;;;;;;;7.63;4.40;;;;;;;18.94;100.00;99775.47;698619;28;855;-67
2023/09/18 00:50:11;;;;;;;7.90;4.60;;;;;;;18.94;100.00;99772.81;699349;28;895;-67
2023/09/18 00:50:32;;;;;;;7.13;4.40;;;;;;;18.93;100.00;99770.22;698602;28;5327;-66
2023/09/18 00:50:52;;;;;;;6.33;4.67;;;;;;;18.92;100.00;99769.38;701007;28;1282;-67
2023/09/18 00:51:14;;;;;;;7.70;4.70;;;;;;;18.90;100.00;99768.63;697036;28;1433;-66
2023/09/18 00:51:34;;;;;;;6.53;4.80;;;;;;;18.89;100.00;99773.03;699193;28;1034;-67
2023/09/18 00:51:55;;;;;;;7.63;4.97;;;;;;;18.89;100.00;99773.03;696981;28;4490;-67
2023/09/18 00:52:17;;;;;;;8.13;4.60;;;;;;;18.89;100.00;99773.03;694965;28;1822;-66
2023/09/18 00:52:38;;;;;;;9.05;4.68;;;;;;;18.87;100.00;99767.00;697423;28;1011;-67
2023/09/18 00:52:59;;;;;;;8.27;4.60;;;;;;;18.87;100.00;99774.03;696307;28;947;-67
2023/09/18 00:53:23;;;;;;;7.63;4.43;;;;;;;18.85;100.00;99766.16;696563;28;979;-67
2023/09/18 00:53:45;;;;;;;7.47;4.80;;;;;;;18.87;100.00;99758.13;699872;28;1015;-67
2023/09/18 00:54:06;;;;;;;9.35;4.97;;;;;;;18.84;100.00;99756.53;697128;28;1355;-67
2023/09/18 00:54:27;;;;;;;8.35;4.60;;;;;;;18.85;100.00;99762.69;696975;28;1736;-67
2023/09/18 00:54:49;;;;;;;9.73;4.75;;;;;;;18.83;100.00;99762.75;694746;28;888;-67
2023/09/18 00:55:10;;;;;;;8.32;4.60;;;;;;;18.84;100.00;99763.59;693147;28;4339;-67
2023/09/18 00:55:32;;;;;;;9.27;4.93;;;;;;;18.84;100.00;99758.31;689441;28;1864;-67
2023/09/18 00:55:56;;;;;;;7.20;4.65;;;;;;;18.81;100.00;99755.84;692141;28;873;-67
2023/09/18 00:56:20;;;;;;;7.70;4.47;;;;;;;18.80;100.00;99759.41;692746;28;1773;-67
2023/09/18 00:56:40;;;;;;;7.88;4.43;;;;;;;18.79;100.00;99753.28;698031;28;912;-67
2023/09/18 00:57:01;;;;;;;8.52;4.65;;;;;;;18.79;100.00;99755.91;697136;28;1367;-67
2023/09/18 00:57:23;;;;;;;7.00;4.75;;;;;;;18.78;100.00;99762.16;696642;28;1854;-66
2023/09/18 00:57:44;;;;;;;7.97;4.90;;;;;;;18.77;100.00;99757.78;697145;28;1017;-67
2023/09/18 00:58:07;;;;;;;8.37;5.03;;;;;;;18.77;100.00;99757.78;695068;28;4674;-67
2023/09/18 00:58:27;;;;;;;6.97;4.70;;;;;;;18.77;100.00;99759.59;694910;28;1832;-67
2023/09/18 00:58:49;;;;;;;7.63;4.47;;;;;;;18.75;100.00;99757.03;696962;28;1148;-67
2023/09/18 00:59:10;;;;;;;8.10;4.60;;;;;;;18.75;100.00;99754.38;699634;28;1910;-66
2023/09/18 00:59:31;;;;;;;7.97;4.70;;;;;;;18.76;100.00;99764.03;698528;28;1876;-67
2023/09/18 00:59:51;;;;;;;7.20;4.68;;;;;;;18.73;100.00;99756.22;701044;28;1231;-67
2023/09/18 01:00:16;;;;;;;7.57;4.60;;;;;;;18.70;100.00;99751.94;698574;28;1272;-67
2023/09/18 01:00:38;;;;;;;7.93;4.85;;;;;;;18.70;100.00;99757.25;695305;28;1323;-67
2023/09/18 01:00:59;;;;;;;7.47;4.82;;;;;;;18.71;100.00;99758.97;696738;28;4270;-66
2023/09/18 01:01:22;;;;;;;7.97;4.40;;;;;;;18.71;100.00;99756.31;693373;28;1451;-66
2023/09/18 01:01:44;;;;;;;8.23;4.68;;;;;;;18.68;100.00;99756.47;691331;28;1235;-67
2023/09/18 01:02:05;;;;;;;8.10;4.72;;;;;;;18.66;100.00;99763.66;693882;28;999;-67
2023/09/18 01:02:26;;;;;;;7.63;5.25;;;;;;;18.66;100.00;99754.84;695516;28;1288;-67
2023/09/18 01:02:46;;;;;;;7.88;5.05;;;;;;;18.67;100.00;99757.41;697759;28;979;-67
2023/09/18 01:03:07;;;;;;;8.48;5.05;;;;;;;18.68;100.00;99758.28;697874;28;1604;-67
2023/09/18 01:03:28;;;;;;;7.87;5.07;;;;;;;18.67;100.00;99760.06;699583;28;1677;-67
2023/09/18 01:03:53;;;;;;;8.75;5.00;;;;;;;18.67;100.00;99760.06;700531;28;955;-67
2023/09/18 01:04:16;;;;;;;8.38;4.75;;;;;;;18.65;100.00;99759.31;700407;28;5035;-67
2023/09/18 01:04:37;;;;;;;8.05;4.78;;;;;;;18.65;100.00;99767.25;698150;28;797;-66
2023/09/18 01:04:58;;;;;;;8.52;4.80;;;;;;;18.63;100.00;99750.56;699414;28;1488;-67
2023/09/18 01:05:19;;;;;;;7.50;4.93;;;;;;;18.63;100.00;99753.22;702311;28;1736;-67
2023/09/18 01:05:40;;;;;;;7.35;4.80;;;;;;;18.62;100.00;99759.47;701294;28;923;-67
2023/09/18 01:06:00;;;;;;;6.90;4.70;;;;;;;18.60;100.00;99761.31;700605;28;1093;-67
2023/09/18 01:06:21;;;;;;;6.97;5.20;;;;;;;18.59;100.00;99756.97;700241;28;1873;-67
2023/09/18 01:06:42;;;;;;;7.10;4.80;;;;;;;18.58;100.00;99751.75;700681;28;1012;-67
2023/09/18 01:07:05;;;;;;;8.73;4.60;;;;;;;18.58;100.00;99749.09;700644;28;4394;-67
2023/09/18 01:07:26;;;;;;;7.22;4.85;;;;;;;18.56;100.00;99749.19;701702;28;1538;-67
2023/09/18 01:07:47;;;;;;;7.73;4.63;;;;;;;18.55;100.00;99748.34;702416;28;907;-67
2023/09/18 01:08:07;;;;;;;7.63;4.57;;;;;;;18.55;100.00;99744.81;699519;28;1207;-67
2023/09/18 01:08:27;;;;;;;8.70;4.95;;;;;;;18.54;100.00;99746.63;697054;28;1060;-66
2023/09/18 01:08:50;;;;;;;8.23;4.70;;;;;;;18.53;100.00;99750.19;698875;28;832;-66
2023/09/18 01:09:14;;;;;;;8.85;5.18;;;;;;;18.53;100.00;99750.19;698719;28;970;-67
2023/09/18 01:09:35;;;;;;;7.50;4.45;;;;;;;18.51;100.00;99746.78;697780;28;983;-67
2023/09/18 01:09:56;;;;;;;6.88;4.50;;;;;;;18.51;100.00;99748.56;698997;28;4699;-67
2023/09/18 01:10:19;;;;;;;8.17;4.67;;;;;;;18.51;100.00;99748.56;700359;28;1786;-67
2023/09/18 01:10:55;;;;;;;8.00;4.90;;;;;;;18.52;100.00;99748.47;701754;28;836;-67
2023/09/18 01:11:30;;;;;;;6.22;4.57;;;;;;;18.52;100.00;99747.63;701320;28;2097;-67
2023/09/18 01:12:01;;;;;;;7.65;4.78;;;;;;;18.52;100.00;99753.78;701645;28;923;-66
2023/09/18 01:12:32;;;;;;;9.20;4.90;;;;;;;18.52;100.00;99755.56;693515;28;1771;-67
2023/09/18 01:13:13;;;;;;;8.15;5.28;;;;;;;18.52;100.00;99752.94;695148;28;4611;-67
2023/09/18 01:13:41;;;;;;;8.75;5.18;;;;;;;18.54;100.00;99759.00;695186;28;1833;-67
2023/09/18 01:14:25;;;;;;;8.98;4.72;;;;;;;18.53;100.00;99755.50;693423;28;920;-67
2023/09/18 01:14:55;;;;;;;6.90;4.95;;;;;;;18.53;100.00;99757.31;686738;28;1385;-67
2023/09/18 01:15:26;;;;;;;8.05;4.90;;;;;;;18.52;100.00;99761.72;696964;28;2432;-67
2023/09/18 01:16:10;;;;;;;8.48;4.78;;;;;;;18.53;100.00;99759.94;695787;28;1016;-67
2023/09/18 01:16:43;;;;;;;6.85;4.68;;;;;;;18.53;100.00;99759.94;697105;28;4939;-67
2023/09/18 01:17:07;;;;;;;7.53;4.63;;;;;;;18.53;100.00;99765.25;702118;28;892;-67
2023/09/18 01:17:29;;;;;;;7.57;4.93;;;;;;;18.51;100.00;99754.72;700382;28;1798;-67
2023/09/18 01:17:49;;;;;;;7.90;4.85;;;;;;;18.52;100.00;99758.22;700419;28;944;-67
2023/09/18 01:18:10;;;;;;;8.80;5.00;;;;;;;18.51;100.00;99753.84;699241;28;915;-67
2023/09/18 01:18:30;;;;;;;8.33;4.77;;;;;;;18.52;100.00;99759.06;698565;28;1976;-65
2023/09/18 01:18:51;;;;;;;7.10;4.47;;;;;;;18.53;100.00;99762.59;700180;28;4433;-67
2023/09/18 01:19:11;;;;;;;6.97;4.73;;;;;;;18.52;100.00;99748.47;699436;28;1904;-67
2023/09/18 01:19:39;;;;;;;7.15;4.80;;;;;;;18.52;100.00;99756.41;694755;28;2530;-65
2023/09/18 01:19:59;;;;;;;7.32;4.65;;;;;;;18.52;100.00;99756.41;695724;28;1344;-67
2023/09/18 01:20:20;;;;;;;7.60;4.82;;;;;;;18.52;100.00;99751.13;694211;28;2472;-67
2023/09/18 01:20:41;;;;;;;8.18;4.60;;;;;;;18.51;100.00;99759.16;696462;28;856;-67
2023/09/18 01:21:01;;;;;;;8.03;4.50;;;;;;;18.50;100.00;99760.97;694734;28;1245;-67
2023/09/18 01:21:21;;;;;;;7.47;4.70;;;;;;;18.53;100.00;99759.94;693192;28;1551;-68
2023/09/18 01:21:45;;;;;;;8.07;4.83;;;;;;;18.52;100.00;99758.22;691742;28;1352;-66
2023/09/18 01:22:07;;;;;;;6.97;5.00;;;;;;;18.53;100.00;99759.94;692860;28;4546;-67
2023/09/18 01:22:30;;;;;;;9.40;4.90;;;;;;;18.53;100.00;99757.31;691665;28;1575;-67
2023/09/18 01:22:50;;;;;;;10.07;5.00;;;;;;;18.51;100.00;99754.72;694060;28;960;-68
2023/09/18 01:23:14;;;;;;;8.55;4.93;;;;;;;18.52;100.00;99760.88;697339;28;845;-68
2023/09/18 01:23:37;;;;;;;8.63;4.82;;;;;;;18.52;100.00;99759.06;697739;28;1009;-67
2023/09/18 01:23:59;;;;;;;7.32;4.50;;;;;;;18.51;100.00;99746.78;698488;28;864;-67
2023/09/18 01:24:20;;;;;;;6.70;4.43;;;;;;;18.51;100.00;99749.44;699542;28;1991;-67
2023/09/18 01:24:43;;;;;;;8.23;5.00;;;;;;;18.51;100.00;99751.22;698662;28;1144;-67
2023/09/18 01:25:06;;;;;;;7.18;4.60;;;;;;;18.50;100.00;99750.38;697936;28;4486;-67
2023/09/18 01:25:26;;;;;;;8.27;4.25;;;;;;;18.49;100.00;99747.81;695467;28;1821;-67
2023/09/18 01:25:47;;;;;;;10.07;4.83;;;;;;;18.48;100.00;99751.38;698433;28;875;-67
2023/09/18 01:26:07;;;;;;;10.27;5.00;;;;;;;18.47;100.00;99747.00;698769;28;1031;-67
2023/09/18 01:26:28;;;;;;;8.52;5.05;;;;;;;18.47;100.00;99745.25;695676;28;1200;-67
2023/09/18 01:26:48;;;;;;;8.02;5.15;;;;;;;18.47;100.00;99749.66;697411;28;1072;-67
2023/09/18 01:27:12;;;;;;;8.27;4.90;;;;;;;18.46;100.00;99742.69;698284;28;1463;-67
2023/09/18 01:27:33;;;;;;;7.22;4.60;;;;;;;18.46;100.00;99747.97;694880;28;2115;-67
2023/09/18 01:27:53;;;;;;;7.95;4.95;;;;;;;18.46;100.00;99754.09;693419;28;4390;-65
2023/09/18 01:28:16;;;;;;;6.73;4.60;;;;;;;18.45;100.00;99748.91;692069;28;1593;-67
2023/09/18 01:28:36;;;;;;;6.95;5.18;;;;;;;18.44;100.00;99752.47;686639;28;1600;-67
2023/09/18 01:28:57;;;;;;;7.50;4.83;;;;;;;18.44;100.00;99750.69;683988;28;936;-68
2023/09/18 01:29:19;;;;;;;8.50;4.75;;;;;;;18.45;100.00;99751.53;685402;28;2374;-67
2023/09/18 01:29:40;;;;;;;8.00;4.55;;;;;;;18.44;100.00;99744.53;691048;28;782;-67
2023/09/18 01:30:01;;;;;;;8.93;5.00;;;;;;;18.44;100.00;99744.53;692428;28;967;-67
2023/09/18 01:30:21;;;;;;;7.75;4.95;;;;;;;18.45;100.00;99748.91;694733;28;2230;-67
2023/09/18 01:30:42;;;;;;;7.73;4.80;;;;;;;18.44;100.00;99747.19;702665;28;860;-68
2023/09/18 01:31:04;;;;;;;7.32;4.85;;;;;;;18.43;100.00;99749.00;700396;28;4795;-67
2023/09/18 01:31:26;;;;;;;8.73;5.05;;;;;;;18.43;100.00;99749.00;698991;28;1722;-65
2023/09/18 01:31:48;;;;;;;8.70;4.80;;;;;;;18.44;100.00;99749.81;698719;28;1576;-65
2023/09/18 01:32:08;;;;;;;7.80;4.80;;;;;;;18.44;100.00;99749.81;699067;28;1981;-65
2023/09/18 01:32:32;;;;;;;7.28;4.70;;;;;;;18.43;100.00;99740.16;694522;28;1633;-65
2023/09/18 01:32:55;;;;;;;7.32;4.93;;;;;;;18.42;100.00;99741.97;692928;28;997;-65
2023/09/18 01:33:17;;;;;;;8.00;5.05;;;;;;;18.42;100.00;99741.97;690815;28;892;-67
2023/09/18 01:33:38;;;;;;;10.20;4.75;;;;;;;18.42;100.00;99741.13;688639;28;873;-65
2023/09/18 01:34:00;;;;;;;7.47;4.72;;;;;;;18.41;100.00;99740.25;688547;28;4460;-65
2023/09/18 01:34:36;;;;;;;6.70;4.72;;;;;;;18.42;100.00;99743.78;693505;28;2500;-65
2023/09/18 01:35:00;;;;;;;8.98;4.78;;;;;;;18.42;100.00;99747.25;694662;28;868;-65
2023/09/18 01:35:22;;;;;;;9.68;5.30;;;;;;;18.41;100.00;99732.31;694292;28;1471;-66
2023/09/18 01:35:45;;;;;;;8.07;5.03;;;;;;;18.40;100.00;99742.97;699454;28;813;-65
2023/09/18 01:36:08;;;;;;;7.80;4.60;;;;;;;18.41;100.00;99734.13;698673;28;894;-67
2023/09/18 01:36:29;;;;;;;5.97;4.45;;;;;;;18.41;100.00;99736.75;696057;28;1779;-66
2023/09/18 01:36:51;;;;;;;7.47;4.57;;;;;;;18.41;100.00;99739.41;697915;28;759;-67
2023/09/18 01:37:12;;;;;;;7.50;4.72;;;;;;;18.40;100.00;99743.84;691598;28;6361;-67
2023/09/18 01:37:35;;;;;;;6.82;4.40;;;;;;;18.39;100.00;99742.13;688285;28;1310;-65
2023/09/18 01:37:57;;;;;;;8.25;4.80;;;;;;;18.40;100.00;99737.69;686823;28;1227;-66
2023/09/18 01:38:17;;;;;;;7.22;4.80;;;;;;;18.38;100.00;99735.97;686764;28;1729;-66
2023/09/18 01:38:39;;;;;;;7.82;4.80;;;;;;;18.37;100.00;99739.56;690033;28;840;-66
2023/09/18 01:39:00;;;;;;;9.30;4.55;;;;;;;18.35;100.00;99738.78;693604;28;1265;-66
2023/09/18 01:39:21;;;;;;;10.43;4.93;;;;;;;18.35;100.00;99735.28;695345;28;2874;-66
2023/09/18 01:39:42;;;;;;;8.80;4.80;;;;;;;18.34;100.00;99723.84;700835;28;773;-66
2023/09/18 01:40:06;;;;;;;7.30;4.70;;;;;;;18.34;100.00;99737.06;700875;28;4413;-66
2023/09/18 01:40:28;;;;;;;7.65;4.40;;;;;;;18.34;100.00;99734.41;698766;28;1416;-66
2023/09/18 01:40:49;;;;;;;8.27;4.57;;;;;;;18.33;100.00;99732.72;699261;28;1553;-65
2023/09/18 01:41:10;;;;;;;8.43;4.90;;;;;;;18.33;100.00;99726.56;696246;28;1440;-66
2023/09/18 01:41:31;;;;;;;8.40;5.40;;;;;;;18.33;100.00;99723.91;692036;28;1886;-66
2023/09/18 01:41:52;;;;;;;7.63;4.85;;;;;;;18.32;100.00;99727.53;695524;28;880;-66
2023/09/18 01:42:13;;;;;;;6.75;4.20;;;;;;;18.31;100.00;99729.28;695383;28;1221;-66
2023/09/18 01:42:35;;;;;;;8.80;4.65;;;;;;;18.31;100.00;99729.28;688153;28;1884;-66
2023/09/18 01:42:55;;;;;;;7.50;4.43;;;;;;;18.31;100.00;99718.72;687115;28;4592;-66
2023/09/18 01:43:16;;;;;;;7.30;4.60;;;;;;;18.31;100.00;99720.50;690051;28;1129;-66
2023/09/18 01:43:37;;;;;;;7.13;4.57;;;;;;;18.29;100.00;99727.66;690514;28;918;-66
2023/09/18 01:43:57;;;;;;;8.02;4.80;;;;;;;18.27;100.00;99726.91;689471;28;1486;-66
2023/09/18 01:44:18;;;;;;;8.53;4.73;;;;;;;18.27;100.00;99729.53;692205;28;1695;-66
2023/09/18 01:44:39;;;;;;;8.25;4.60;;;;;;;18.26;100.00;99735.75;691883;28;821;-66